sensor_id;sensor_type;location;lat;lon;timestamp;P1;durP1;ratioP1;P2;durP2;ratioP2
6823;SDS011;58633;49.470;11.004;2022-09-09T00:01:14;3.25;;;2.13;;
6823;SDS011;58633;49.470;11.004;2022-09-09T00:04:18;8.05;;;2.17;;
6823;SDS011;58633;49.470;11.004;2022-09-09T00:12:29;3.35;;;1.50;;
6823;SDS011;58633;49.470;11.004;2022-09-09T00:15:05;2.05;;;1.80;;
6823;SDS011;58633;49.470;11.004;2022-09-09T00:17:38;2.15;;;1.92;;
6823;SDS011;58633;49.470;11.004;2022-09-09T00:23:12;4.20;;;1.85;;
6823;SDS011;58633;49.470;11.004;2022-09-09T00:28:29;2.10;;;1.77;;
6823;SDS011;58633;49.470;11.004;2022-09-09T00:31:11;1.80;;;1.70;;
6823;SDS011;58633;49.470;11.004;2022-09-09T00:33:40;2.17;;;1.88;;
6823;SDS011;58633;49.470;11.004;2022-09-09T00:36:12;1.70;;;1.60;;
6823;SDS011;58633;49.470;11.004;2022-09-09T00:38:44;2.42;;;1.90;;
6823;SDS011;58633;49.470;11.004;2022-09-09T00:41:35;2.92;;;1.80;;
6823;SDS011;58633;49.470;11.004;2022-09-09T00:44:25;2.15;;;1.95;;
6823;SDS011;58633;49.470;11.004;2022-09-09T00:52:37;2.58;;;2.08;;
6823;SDS011;58633;49.470;11.004;2022-09-09T00:55:13;1.83;;;1.55;;
6823;SDS011;58633;49.470;11.004;2022-09-09T00:57:44;4.95;;;1.80;;
6823;SDS011;58633;49.470;11.004;2022-09-09T01:17:01;3.72;;;1.90;;
6823;SDS011;58633;49.470;11.004;2022-09-09T01:28:18;2.75;;;2.08;;
6823;SDS011;58633;49.470;11.004;2022-09-09T01:30:47;2.70;;;1.88;;
6823;SDS011;58633;49.470;11.004;2022-09-09T01:33:15;2.63;;;1.85;;
6823;SDS011;58633;49.470;11.004;2022-09-09T01:35:44;2.22;;;1.70;;
6823;SDS011;58633;49.470;11.004;2022-09-09T01:38:11;1.92;;;1.60;;
6823;SDS011;58633;49.470;11.004;2022-09-09T01:40:38;3.72;;;1.45;;
6823;SDS011;58633;49.470;11.004;2022-09-09T01:43:04;2.33;;;1.70;;
6823;SDS011;58633;49.470;11.004;2022-09-09T01:45:32;2.50;;;1.77;;
6823;SDS011;58633;49.470;11.004;2022-09-09T01:47:58;2.65;;;1.60;;
6823;SDS011;58633;49.470;11.004;2022-09-09T01:50:25;3.38;;;1.80;;
6823;SDS011;58633;49.470;11.004;2022-09-09T01:52:52;2.17;;;1.77;;
6823;SDS011;58633;49.470;11.004;2022-09-09T01:55:26;1.73;;;1.60;;
6823;SDS011;58633;49.470;11.004;2022-09-09T02:00:30;2.53;;;1.70;;
6823;SDS011;58633;49.470;11.004;2022-09-09T02:06:08;1.58;;;1.48;;
6823;SDS011;58633;49.470;11.004;2022-09-09T02:08:50;2.65;;;1.60;;
6823;SDS011;58633;49.470;11.004;2022-09-09T02:11:21;3.53;;;1.52;;
6823;SDS011;58633;49.470;11.004;2022-09-09T02:13:51;2.83;;;1.67;;
6823;SDS011;58633;49.470;11.004;2022-09-09T02:16:22;4.22;;;1.65;;
6823;SDS011;58633;49.470;11.004;2022-09-09T02:18:54;1.83;;;1.42;;
6823;SDS011;58633;49.470;11.004;2022-09-09T02:21:24;1.90;;;1.55;;
6823;SDS011;58633;49.470;11.004;2022-09-09T02:23:53;3.95;;;1.60;;
6823;SDS011;58633;49.470;11.004;2022-09-09T02:26:21;2.65;;;1.52;;
6823;SDS011;58633;49.470;11.004;2022-09-09T02:28:49;2.67;;;1.70;;
6823;SDS011;58633;49.470;11.004;2022-09-09T02:31:16;2.67;;;1.50;;
6823;SDS011;58633;49.470;11.004;2022-09-09T02:33:44;2.75;;;1.60;;
6823;SDS011;58633;49.470;11.004;2022-09-09T02:36:17;2.28;;;1.65;;
6823;SDS011;58633;49.470;11.004;2022-09-09T02:38:45;1.60;;;1.50;;
6823;SDS011;58633;49.470;11.004;2022-09-09T02:41:17;3.50;;;1.83;;
6823;SDS011;58633;49.470;11.004;2022-09-09T02:43:43;3.78;;;2.22;;
6823;SDS011;58633;49.470;11.004;2022-09-09T02:51:34;4.57;;;1.65;;
6823;SDS011;58633;49.470;11.004;2022-09-09T02:54:04;1.65;;;1.55;;
6823;SDS011;58633;49.470;11.004;2022-09-09T02:56:37;3.25;;;1.80;;
6823;SDS011;58633;49.470;11.004;2022-09-09T02:59:08;2.00;;;1.50;;
6823;SDS011;58633;49.470;11.004;2022-09-09T03:01:34;1.67;;;1.58;;
6823;SDS011;58633;49.470;11.004;2022-09-09T03:04:01;3.97;;;1.48;;
6823;SDS011;58633;49.470;11.004;2022-09-09T03:06:30;2.63;;;1.67;;
6823;SDS011;58633;49.470;11.004;2022-09-09T03:08:55;1.95;;;1.85;;
6823;SDS011;58633;49.470;11.004;2022-09-09T03:11:25;3.47;;;1.45;;
6823;SDS011;58633;49.470;11.004;2022-09-09T03:13:51;2.85;;;1.60;;
6823;SDS011;58633;49.470;11.004;2022-09-09T03:16:17;2.90;;;1.60;;
6823;SDS011;58633;49.470;11.004;2022-09-09T03:18:43;3.40;;;1.70;;
6823;SDS011;58633;49.470;11.004;2022-09-09T03:21:09;1.65;;;1.55;;
6823;SDS011;58633;49.470;11.004;2022-09-09T03:23:36;3.33;;;2.15;;
6823;SDS011;58633;49.470;11.004;2022-09-09T03:26:01;1.70;;;1.60;;
6823;SDS011;58633;49.470;11.004;2022-09-09T03:28:27;3.00;;;1.77;;
6823;SDS011;58633;49.470;11.004;2022-09-09T03:30:59;3.55;;;1.83;;
6823;SDS011;58633;49.470;11.004;2022-09-09T03:33:26;2.67;;;1.60;;
6823;SDS011;58633;49.470;11.004;2022-09-09T03:35:52;4.55;;;1.77;;
6823;SDS011;58633;49.470;11.004;2022-09-09T03:38:18;2.72;;;1.67;;
6823;SDS011;58633;49.470;11.004;2022-09-09T03:40:53;3.13;;;1.83;;
6823;SDS011;58633;49.470;11.004;2022-09-09T03:43:21;3.65;;;1.88;;
6823;SDS011;58633;49.470;11.004;2022-09-09T03:45:47;5.78;;;1.90;;
6823;SDS011;58633;49.470;11.004;2022-09-09T03:48:13;1.95;;;1.60;;
6823;SDS011;58633;49.470;11.004;2022-09-09T03:50:43;5.18;;;1.88;;
6823;SDS011;58633;49.470;11.004;2022-09-09T03:53:14;4.40;;;1.80;;
6823;SDS011;58633;49.470;11.004;2022-09-09T03:55:45;1.67;;;1.58;;
6823;SDS011;58633;49.470;11.004;2022-09-09T03:58:12;2.65;;;1.60;;
6823;SDS011;58633;49.470;11.004;2022-09-09T04:00:39;1.95;;;1.63;;
6823;SDS011;58633;49.470;11.004;2022-09-09T04:03:09;1.90;;;1.70;;
6823;SDS011;58633;49.470;11.004;2022-09-09T04:05:36;3.05;;;1.75;;
6823;SDS011;58633;49.470;11.004;2022-09-09T04:08:05;2.80;;;1.83;;
6823;SDS011;58633;49.470;11.004;2022-09-09T04:10:31;2.80;;;1.40;;
6823;SDS011;58633;49.470;11.004;2022-09-09T04:12:57;8.80;;;1.80;;
6823;SDS011;58633;49.470;11.004;2022-09-09T04:15:23;1.70;;;1.60;;
6823;SDS011;58633;49.470;11.004;2022-09-09T04:17:48;4.07;;;1.60;;
6823;SDS011;58633;49.470;11.004;2022-09-09T04:20:14;2.20;;;1.75;;
6823;SDS011;58633;49.470;11.004;2022-09-09T04:22:40;2.15;;;1.80;;
6823;SDS011;58633;49.470;11.004;2022-09-09T04:25:06;3.95;;;2.42;;
6823;SDS011;58633;49.470;11.004;2022-09-09T04:27:32;2.22;;;1.63;;
6823;SDS011;58633;49.470;11.004;2022-09-09T04:29:57;2.13;;;1.60;;
6823;SDS011;58633;49.470;11.004;2022-09-09T04:32:24;1.80;;;1.67;;
6823;SDS011;58633;49.470;11.004;2022-09-09T04:34:53;2.13;;;1.70;;
6823;SDS011;58633;49.470;11.004;2022-09-09T04:37:18;2.28;;;1.70;;
6823;SDS011;58633;49.470;11.004;2022-09-09T04:39:44;5.85;;;1.85;;
6823;SDS011;58633;49.470;11.004;2022-09-09T04:42:10;3.42;;;1.80;;
6823;SDS011;58633;49.470;11.004;2022-09-09T04:44:36;5.30;;;1.85;;
6823;SDS011;58633;49.470;11.004;2022-09-09T04:47:02;3.92;;;1.95;;
6823;SDS011;58633;49.470;11.004;2022-09-09T04:49:28;3.85;;;1.85;;
6823;SDS011;58633;49.470;11.004;2022-09-09T04:51:57;3.28;;;2.03;;
6823;SDS011;58633;49.470;11.004;2022-09-09T04:54:22;4.00;;;2.05;;
6823;SDS011;58633;49.470;11.004;2022-09-09T04:56:51;2.90;;;2.13;;
6823;SDS011;58633;49.470;11.004;2022-09-09T04:59:17;4.63;;;2.22;;
6823;SDS011;58633;49.470;11.004;2022-09-09T05:01:43;6.80;;;2.30;;
6823;SDS011;58633;49.470;11.004;2022-09-09T05:04:08;2.80;;;2.08;;
6823;SDS011;58633;49.470;11.004;2022-09-09T05:06:34;4.30;;;2.38;;
6823;SDS011;58633;49.470;11.004;2022-09-09T05:09:01;6.88;;;2.67;;
6823;SDS011;58633;49.470;11.004;2022-09-09T05:11:30;5.05;;;2.30;;
6823;SDS011;58633;49.470;11.004;2022-09-09T05:13:57;4.88;;;1.98;;
6823;SDS011;58633;49.470;11.004;2022-09-09T05:16:22;2.58;;;1.67;;
6823;SDS011;58633;49.470;11.004;2022-09-09T05:18:49;3.58;;;1.73;;
6823;SDS011;58633;49.470;11.004;2022-09-09T05:21:16;3.20;;;1.90;;
6823;SDS011;58633;49.470;11.004;2022-09-09T05:23:42;1.70;;;1.60;;
6823;SDS011;58633;49.470;11.004;2022-09-09T05:26:14;2.75;;;2.03;;
6823;SDS011;58633;49.470;11.004;2022-09-09T05:28:43;2.53;;;1.73;;
6823;SDS011;58633;49.470;11.004;2022-09-09T05:31:09;3.42;;;1.80;;
6823;SDS011;58633;49.470;11.004;2022-09-09T05:33:38;1.88;;;1.63;;
6823;SDS011;58633;49.470;11.004;2022-09-09T05:36:08;3.25;;;1.92;;
6823;SDS011;58633;49.470;11.004;2022-09-09T05:38:45;2.15;;;1.77;;
6823;SDS011;58633;49.470;11.004;2022-09-09T05:41:11;5.85;;;2.25;;
6823;SDS011;58633;49.470;11.004;2022-09-09T05:43:38;4.70;;;2.15;;
6823;SDS011;58633;49.470;11.004;2022-09-09T05:46:05;2.80;;;1.90;;
6823;SDS011;58633;49.470;11.004;2022-09-09T05:48:36;4.05;;;2.00;;
6823;SDS011;58633;49.470;11.004;2022-09-09T05:51:03;2.35;;;2.13;;
6823;SDS011;58633;49.470;11.004;2022-09-09T05:53:31;3.58;;;1.95;;
6823;SDS011;58633;49.470;11.004;2022-09-09T05:56:02;4.68;;;1.98;;
6823;SDS011;58633;49.470;11.004;2022-09-09T05:58:33;1.95;;;1.75;;
6823;SDS011;58633;49.470;11.004;2022-09-09T06:01:03;2.78;;;1.75;;
6823;SDS011;58633;49.470;11.004;2022-09-09T06:03:31;3.45;;;2.10;;
6823;SDS011;58633;49.470;11.004;2022-09-09T06:05:59;2.13;;;1.80;;
6823;SDS011;58633;49.470;11.004;2022-09-09T06:08:27;6.20;;;1.83;;
6823;SDS011;58633;49.470;11.004;2022-09-09T06:10:52;3.97;;;2.00;;
6823;SDS011;58633;49.470;11.004;2022-09-09T06:13:18;2.70;;;2.20;;
6823;SDS011;58633;49.470;11.004;2022-09-09T06:15:50;3.75;;;2.00;;
6823;SDS011;58633;49.470;11.004;2022-09-09T06:18:18;3.67;;;2.05;;
6823;SDS011;58633;49.470;11.004;2022-09-09T06:20:57;2.22;;;2.00;;
6823;SDS011;58633;49.470;11.004;2022-09-09T06:23:29;5.53;;;1.90;;
6823;SDS011;58633;49.470;11.004;2022-09-09T06:26:09;3.83;;;2.20;;
6823;SDS011;58633;49.470;11.004;2022-09-09T06:28:44;3.67;;;2.10;;
6823;SDS011;58633;49.470;11.004;2022-09-09T06:31:11;2.20;;;1.77;;
6823;SDS011;58633;49.470;11.004;2022-09-09T06:33:38;2.50;;;2.30;;
6823;SDS011;58633;49.470;11.004;2022-09-09T06:39:02;5.38;;;2.20;;
6823;SDS011;58633;49.470;11.004;2022-09-09T06:41:29;6.40;;;2.10;;
6823;SDS011;58633;49.470;11.004;2022-09-09T06:43:56;6.53;;;2.10;;
6823;SDS011;58633;49.470;11.004;2022-09-09T06:46:23;3.88;;;1.85;;
6823;SDS011;58633;49.470;11.004;2022-09-09T06:48:54;6.88;;;2.00;;
6823;SDS011;58633;49.470;11.004;2022-09-09T06:51:24;4.30;;;2.30;;
6823;SDS011;58633;49.470;11.004;2022-09-09T06:53:52;3.88;;;2.10;;
6823;SDS011;58633;49.470;11.004;2022-09-09T06:56:24;4.15;;;2.17;;
6823;SDS011;58633;49.470;11.004;2022-09-09T06:58:54;4.15;;;2.08;;
6823;SDS011;58633;49.470;11.004;2022-09-09T07:01:22;5.50;;;2.17;;
6823;SDS011;58633;49.470;11.004;2022-09-09T07:03:51;2.03;;;1.90;;
6823;SDS011;58633;49.470;11.004;2022-09-09T07:06:19;4.13;;;1.98;;
6823;SDS011;58633;49.470;11.004;2022-09-09T07:08:51;3.15;;;1.75;;
6823;SDS011;58633;49.470;11.004;2022-09-09T07:11:18;3.97;;;1.75;;
6823;SDS011;58633;49.470;11.004;2022-09-09T07:13:45;2.70;;;2.00;;
6823;SDS011;58633;49.470;11.004;2022-09-09T07:16:12;4.57;;;2.20;;
6823;SDS011;58633;49.470;11.004;2022-09-09T07:18:40;5.13;;;2.05;;
6823;SDS011;58633;49.470;11.004;2022-09-09T07:21:06;4.88;;;2.20;;
6823;SDS011;58633;49.470;11.004;2022-09-09T07:23:34;4.53;;;1.70;;
6823;SDS011;58633;49.470;11.004;2022-09-09T07:26:00;4.10;;;1.75;;
6823;SDS011;58633;49.470;11.004;2022-09-09T07:28:28;4.15;;;1.73;;
6823;SDS011;58633;49.470;11.004;2022-09-09T07:30:56;2.20;;;1.75;;
6823;SDS011;58633;49.470;11.004;2022-09-09T07:33:29;2.35;;;2.03;;
6823;SDS011;58633;49.470;11.004;2022-09-09T07:36:09;4.57;;;1.70;;
6823;SDS011;58633;49.470;11.004;2022-09-09T07:38:45;4.47;;;1.73;;
6823;SDS011;58633;49.470;11.004;2022-09-09T07:41:14;2.63;;;1.80;;
6823;SDS011;58633;49.470;11.004;2022-09-09T07:43:47;2.80;;;1.85;;
6823;SDS011;58633;49.470;11.004;2022-09-09T07:46:14;4.43;;;2.00;;
6823;SDS011;58633;49.470;11.004;2022-09-09T07:48:45;3.53;;;2.30;;
6823;SDS011;58633;49.470;11.004;2022-09-09T07:51:28;4.90;;;2.00;;
6823;SDS011;58633;49.470;11.004;2022-09-09T07:53:57;4.95;;;1.83;;
6823;SDS011;58633;49.470;11.004;2022-09-09T07:56:25;3.20;;;1.75;;
6823;SDS011;58633;49.470;11.004;2022-09-09T07:58:54;2.60;;;1.75;;
6823;SDS011;58633;49.470;11.004;2022-09-09T08:01:24;6.60;;;2.05;;
6823;SDS011;58633;49.470;11.004;2022-09-09T08:04:04;3.60;;;2.05;;
6823;SDS011;58633;49.470;11.004;2022-09-09T08:06:33;3.35;;;1.80;;
6823;SDS011;58633;49.470;11.004;2022-09-09T08:09:02;4.35;;;1.90;;
6823;SDS011;58633;49.470;11.004;2022-09-09T08:11:28;5.22;;;2.45;;
6823;SDS011;58633;49.470;11.004;2022-09-09T08:13:54;4.85;;;1.95;;
6823;SDS011;58633;49.470;11.004;2022-09-09T08:16:24;4.90;;;1.77;;
6823;SDS011;58633;49.470;11.004;2022-09-09T08:18:53;4.20;;;1.60;;
6823;SDS011;58633;49.470;11.004;2022-09-09T08:21:21;5.20;;;2.08;;
6823;SDS011;58633;49.470;11.004;2022-09-09T08:23:49;2.65;;;1.40;;
6823;SDS011;58633;49.470;11.004;2022-09-09T08:26:17;3.05;;;1.38;;
6823;SDS011;58633;49.470;11.004;2022-09-09T08:28:47;2.63;;;1.10;;
6823;SDS011;58633;49.470;11.004;2022-09-09T08:31:18;1.88;;;1.33;;
6823;SDS011;58633;49.470;11.004;2022-09-09T08:33:47;1.40;;;1.20;;
6823;SDS011;58633;49.470;11.004;2022-09-09T08:36:14;2.15;;;1.33;;
6823;SDS011;58633;49.470;11.004;2022-09-09T08:38:49;2.33;;;1.20;;
6823;SDS011;58633;49.470;11.004;2022-09-09T08:46:59;2.75;;;1.02;;
6823;SDS011;58633;49.470;11.004;2022-09-09T08:49:44;1.00;;;0.80;;
6823;SDS011;58633;49.470;11.004;2022-09-09T08:52:42;3.83;;;0.90;;
6823;SDS011;58633;49.470;11.004;2022-09-09T08:55:24;1.50;;;0.80;;
6823;SDS011;58633;49.470;11.004;2022-09-09T08:58:12;5.47;;;1.27;;
6823;SDS011;58633;49.470;11.004;2022-09-09T09:00:43;1.65;;;0.77;;
6823;SDS011;58633;49.470;11.004;2022-09-09T09:03:41;1.42;;;1.00;;
6823;SDS011;58633;49.470;11.004;2022-09-09T09:06:24;2.25;;;0.95;;
6823;SDS011;58633;49.470;11.004;2022-09-09T09:09:08;0.90;;;0.70;;
6823;SDS011;58633;49.470;11.004;2022-09-09T09:11:56;2.20;;;1.08;;
6823;SDS011;58633;49.470;11.004;2022-09-09T09:14:26;3.83;;;1.00;;
6823;SDS011;58633;49.470;11.004;2022-09-09T09:19:43;2.25;;;0.75;;
6823;SDS011;58633;49.470;11.004;2022-09-09T09:22:17;2.38;;;0.60;;
6823;SDS011;58633;49.470;11.004;2022-09-09T09:24:56;2.70;;;0.88;;
6823;SDS011;58633;49.470;11.004;2022-09-09T09:27:26;3.25;;;0.88;;
6823;SDS011;58633;49.470;11.004;2022-09-09T09:29:58;2.15;;;0.90;;
6823;SDS011;58633;49.470;11.004;2022-09-09T09:32:25;2.25;;;0.95;;
6823;SDS011;58633;49.470;11.004;2022-09-09T09:34:55;2.20;;;0.85;;
6823;SDS011;58633;49.470;11.004;2022-09-09T09:37:28;1.65;;;0.77;;
6823;SDS011;58633;49.470;11.004;2022-09-09T09:39:56;3.33;;;0.80;;
6823;SDS011;58633;49.470;11.004;2022-09-09T09:42:32;2.08;;;0.70;;
6823;SDS011;58633;49.470;11.004;2022-09-09T09:45:07;2.25;;;0.80;;
6823;SDS011;58633;49.470;11.004;2022-09-09T09:47:58;1.80;;;0.80;;
6823;SDS011;58633;49.470;11.004;2022-09-09T09:50:31;1.95;;;0.88;;
6823;SDS011;58633;49.470;11.004;2022-09-09T09:53:02;1.95;;;1.00;;
6823;SDS011;58633;49.470;11.004;2022-09-09T09:55:32;2.70;;;0.82;;
6823;SDS011;58633;49.470;11.004;2022-09-09T09:58:13;5.93;;;0.93;;
6823;SDS011;58633;49.470;11.004;2022-09-09T10:00:50;1.58;;;0.82;;
6823;SDS011;58633;49.470;11.004;2022-09-09T10:03:22;3.90;;;0.95;;
6823;SDS011;58633;49.470;11.004;2022-09-09T10:06:02;1.08;;;0.80;;
6823;SDS011;58633;49.470;11.004;2022-09-09T10:08:28;3.38;;;0.80;;
6823;SDS011;58633;49.470;11.004;2022-09-09T10:19:20;0.93;;;0.63;;
6823;SDS011;58633;49.470;11.004;2022-09-09T10:27:50;3.88;;;0.90;;
6823;SDS011;58633;49.470;11.004;2022-09-09T10:33:30;1.90;;;0.90;;
6823;SDS011;58633;49.470;11.004;2022-09-09T10:38:34;1.75;;;0.70;;
6823;SDS011;58633;49.470;11.004;2022-09-09T10:43:46;5.43;;;0.70;;
6823;SDS011;58633;49.470;11.004;2022-09-09T10:54:33;5.07;;;0.88;;
6823;SDS011;58633;49.470;11.004;2022-09-09T10:57:16;1.60;;;0.82;;
6823;SDS011;58633;49.470;11.004;2022-09-09T10:59:47;2.33;;;0.82;;
6823;SDS011;58633;49.470;11.004;2022-09-09T11:02:27;1.33;;;0.73;;
6823;SDS011;58633;49.470;11.004;2022-09-09T11:07:56;1.83;;;0.88;;
6823;SDS011;58633;49.470;11.004;2022-09-09T11:10:34;2.13;;;0.75;;
6823;SDS011;58633;49.470;11.004;2022-09-09T11:13:18;1.52;;;0.88;;
6823;SDS011;58633;49.470;11.004;2022-09-09T11:15:52;3.13;;;0.80;;
6823;SDS011;58633;49.470;11.004;2022-09-09T11:18:23;4.03;;;1.02;;
6823;SDS011;58633;49.470;11.004;2022-09-09T11:20:51;1.17;;;0.70;;
6823;SDS011;58633;49.470;11.004;2022-09-09T11:23:22;5.50;;;0.90;;
6823;SDS011;58633;49.470;11.004;2022-09-09T11:25:58;2.45;;;0.80;;
6823;SDS011;58633;49.470;11.004;2022-09-09T11:31:43;1.90;;;0.80;;
6823;SDS011;58633;49.470;11.004;2022-09-09T11:34:44;1.73;;;0.60;;
6823;SDS011;58633;49.470;11.004;2022-09-09T11:40:19;1.95;;;0.80;;
6823;SDS011;58633;49.470;11.004;2022-09-09T11:42:48;1.92;;;0.70;;
6823;SDS011;58633;49.470;11.004;2022-09-09T11:45:26;1.85;;;0.70;;
6823;SDS011;58633;49.470;11.004;2022-09-09T11:47:57;3.08;;;0.70;;
6823;SDS011;58633;49.470;11.004;2022-09-09T11:53:02;2.08;;;0.80;;
6823;SDS011;58633;49.470;11.004;2022-09-09T11:55:37;3.88;;;1.00;;
6823;SDS011;58633;49.470;11.004;2022-09-09T11:58:04;2.08;;;0.70;;
6823;SDS011;58633;49.470;11.004;2022-09-09T12:00:37;3.45;;;0.95;;
6823;SDS011;58633;49.470;11.004;2022-09-09T12:03:06;1.77;;;0.73;;
6823;SDS011;58633;49.470;11.004;2022-09-09T12:05:57;3.22;;;0.77;;
6823;SDS011;58633;49.470;11.004;2022-09-09T12:08:28;1.73;;;0.57;;
6823;SDS011;58633;49.470;11.004;2022-09-09T12:10:58;2.03;;;0.80;;
6823;SDS011;58633;49.470;11.004;2022-09-09T12:13:25;1.13;;;0.60;;
6823;SDS011;58633;49.470;11.004;2022-09-09T12:15:52;2.40;;;1.00;;
6823;SDS011;58633;49.470;11.004;2022-09-09T12:18:23;1.67;;;0.70;;
6823;SDS011;58633;49.470;11.004;2022-09-09T12:20:53;1.17;;;0.50;;
6823;SDS011;58633;49.470;11.004;2022-09-09T12:23:32;1.63;;;0.60;;
6823;SDS011;58633;49.470;11.004;2022-09-09T12:26:16;1.38;;;0.43;;
6823;SDS011;58633;49.470;11.004;2022-09-09T12:31:44;2.38;;;0.80;;
6823;SDS011;58633;49.470;11.004;2022-09-09T12:34:32;2.10;;;0.65;;
6823;SDS011;58633;49.470;11.004;2022-09-09T12:37:11;1.52;;;0.68;;
6823;SDS011;58633;49.470;11.004;2022-09-09T12:39:45;1.13;;;0.50;;
6823;SDS011;58633;49.470;11.004;2022-09-09T12:42:20;0.93;;;0.60;;
6823;SDS011;58633;49.470;11.004;2022-09-09T12:45:14;2.42;;;0.60;;
6823;SDS011;58633;49.470;11.004;2022-09-09T12:50:33;1.80;;;0.63;;
6823;SDS011;58633;49.470;11.004;2022-09-09T12:52:59;3.17;;;0.80;;
6823;SDS011;58633;49.470;11.004;2022-09-09T12:55:29;1.30;;;0.80;;
6823;SDS011;58633;49.470;11.004;2022-09-09T12:57:58;1.35;;;0.73;;
6823;SDS011;58633;49.470;11.004;2022-09-09T13:00:26;3.38;;;1.60;;
6823;SDS011;58633;49.470;11.004;2022-09-09T13:02:54;0.98;;;0.70;;
6823;SDS011;58633;49.470;11.004;2022-09-09T13:05:42;3.00;;;0.70;;
6823;SDS011;58633;49.470;11.004;2022-09-09T13:08:11;1.83;;;0.68;;
6823;SDS011;58633;49.470;11.004;2022-09-09T13:13:16;0.77;;;0.70;;
6823;SDS011;58633;49.470;11.004;2022-09-09T13:15:57;1.95;;;0.60;;
6823;SDS011;58633;49.470;11.004;2022-09-09T13:18:25;4.00;;;0.88;;
6823;SDS011;58633;49.470;11.004;2022-09-09T13:20:56;1.65;;;0.60;;
6823;SDS011;58633;49.470;11.004;2022-09-09T13:23:23;1.40;;;0.52;;
6823;SDS011;58633;49.470;11.004;2022-09-09T13:26:04;2.38;;;0.55;;
6823;SDS011;58633;49.470;11.004;2022-09-09T13:28:33;2.40;;;0.88;;
6823;SDS011;58633;49.470;11.004;2022-09-09T13:31:03;1.02;;;0.60;;
6823;SDS011;58633;49.470;11.004;2022-09-09T13:33:35;2.40;;;0.80;;
6823;SDS011;58633;49.470;11.004;2022-09-09T13:36:03;2.55;;;0.80;;
6823;SDS011;58633;49.470;11.004;2022-09-09T13:38:38;2.72;;;0.80;;
6823;SDS011;58633;49.470;11.004;2022-09-09T13:41:19;3.67;;;0.70;;
6823;SDS011;58633;49.470;11.004;2022-09-09T13:44:02;1.23;;;0.60;;
6823;SDS011;58633;49.470;11.004;2022-09-09T13:46:33;0.77;;;0.40;;
6823;SDS011;58633;49.470;11.004;2022-09-09T13:49:18;0.73;;;0.40;;
6823;SDS011;58633;49.470;11.004;2022-09-09T13:51:47;2.58;;;0.70;;
6823;SDS011;58633;49.470;11.004;2022-09-09T13:54:16;1.45;;;0.57;;
6823;SDS011;58633;49.470;11.004;2022-09-09T13:56:43;1.42;;;0.60;;
6823;SDS011;58633;49.470;11.004;2022-09-09T13:59:11;1.92;;;0.65;;
6823;SDS011;58633;49.470;11.004;2022-09-09T14:01:38;2.55;;;0.80;;
6823;SDS011;58633;49.470;11.004;2022-09-09T14:04:04;1.85;;;0.82;;
6823;SDS011;58633;49.470;11.004;2022-09-09T14:06:31;1.38;;;0.50;;
6823;SDS011;58633;49.470;11.004;2022-09-09T14:08:57;1.02;;;0.70;;
6823;SDS011;58633;49.470;11.004;2022-09-09T14:11:23;1.10;;;0.50;;
6823;SDS011;58633;49.470;11.004;2022-09-09T14:13:49;2.25;;;0.70;;
6823;SDS011;58633;49.470;11.004;2022-09-09T14:16:16;1.20;;;0.50;;
6823;SDS011;58633;49.470;11.004;2022-09-09T14:18:42;3.22;;;0.70;;
6823;SDS011;58633;49.470;11.004;2022-09-09T14:21:08;4.57;;;0.95;;
6823;SDS011;58633;49.470;11.004;2022-09-09T14:23:34;6.03;;;0.88;;
6823;SDS011;58633;49.470;11.004;2022-09-09T14:26:00;2.08;;;0.70;;
6823;SDS011;58633;49.470;11.004;2022-09-09T14:28:26;7.93;;;0.70;;
6823;SDS011;58633;49.470;11.004;2022-09-09T14:30:53;3.55;;;0.77;;
6823;SDS011;58633;49.470;11.004;2022-09-09T14:33:18;3.58;;;0.95;;
6823;SDS011;58633;49.470;11.004;2022-09-09T14:35:44;2.20;;;0.63;;
6823;SDS011;58633;49.470;11.004;2022-09-09T14:38:10;2.58;;;0.68;;
6823;SDS011;58633;49.470;11.004;2022-09-09T14:40:36;3.97;;;1.42;;
6823;SDS011;58633;49.470;11.004;2022-09-09T14:43:02;2.78;;;0.80;;
6823;SDS011;58633;49.470;11.004;2022-09-09T14:45:29;3.92;;;0.93;;
6823;SDS011;58633;49.470;11.004;2022-09-09T14:47:54;2.40;;;1.02;;
6823;SDS011;58633;49.470;11.004;2022-09-09T14:50:20;2.20;;;0.95;;
6823;SDS011;58633;49.470;11.004;2022-09-09T14:52:47;1.10;;;0.70;;
6823;SDS011;58633;49.470;11.004;2022-09-09T14:55:14;2.53;;;0.90;;
6823;SDS011;58633;49.470;11.004;2022-09-09T14:57:40;3.95;;;1.10;;
6823;SDS011;58633;49.470;11.004;2022-09-09T15:00:07;7.55;;;0.90;;
6823;SDS011;58633;49.470;11.004;2022-09-09T15:02:34;2.60;;;1.08;;
6823;SDS011;58633;49.470;11.004;2022-09-09T15:04:59;3.95;;;0.63;;
6823;SDS011;58633;49.470;11.004;2022-09-09T15:07:26;2.33;;;0.85;;
6823;SDS011;58633;49.470;11.004;2022-09-09T15:09:53;2.60;;;1.02;;
6823;SDS011;58633;49.470;11.004;2022-09-09T15:12:19;3.95;;;0.80;;
6823;SDS011;58633;49.470;11.004;2022-09-09T15:14:45;3.38;;;0.73;;
6823;SDS011;58633;49.470;11.004;2022-09-09T15:17:11;5.85;;;0.90;;
6823;SDS011;58633;49.470;11.004;2022-09-09T15:19:37;3.33;;;0.73;;
6823;SDS011;58633;49.470;11.004;2022-09-09T15:22:03;3.63;;;0.80;;
6823;SDS011;58633;49.470;11.004;2022-09-09T15:24:30;2.45;;;0.85;;
6823;SDS011;58633;49.470;11.004;2022-09-09T15:26:56;2.85;;;0.80;;
6823;SDS011;58633;49.470;11.004;2022-09-09T15:29:22;2.53;;;0.93;;
6823;SDS011;58633;49.470;11.004;2022-09-09T15:31:48;1.92;;;1.00;;
6823;SDS011;58633;49.470;11.004;2022-09-09T15:34:13;4.18;;;1.05;;
6823;SDS011;58633;49.470;11.004;2022-09-09T15:36:40;1.50;;;0.80;;
6823;SDS011;58633;49.470;11.004;2022-09-09T15:39:08;3.53;;;0.82;;
6823;SDS011;58633;49.470;11.004;2022-09-09T15:41:40;1.85;;;0.80;;
6823;SDS011;58633;49.470;11.004;2022-09-09T15:44:07;2.45;;;0.70;;
6823;SDS011;58633;49.470;11.004;2022-09-09T15:46:35;3.67;;;1.02;;
6823;SDS011;58633;49.470;11.004;2022-09-09T15:49:15;1.77;;;0.70;;
6823;SDS011;58633;49.470;11.004;2022-09-09T15:51:57;1.00;;;0.77;;
6823;SDS011;58633;49.470;11.004;2022-09-09T15:54:24;0.70;;;0.50;;
6823;SDS011;58633;49.470;11.004;2022-09-09T15:56:55;0.63;;;0.38;;
6823;SDS011;58633;49.470;11.004;2022-09-09T15:59:22;1.85;;;0.50;;
6823;SDS011;58633;49.470;11.004;2022-09-09T16:01:49;1.48;;;0.70;;
6823;SDS011;58633;49.470;11.004;2022-09-09T16:04:18;0.77;;;0.55;;
6823;SDS011;58633;49.470;11.004;2022-09-09T16:06:51;1.92;;;0.60;;
6823;SDS011;58633;49.470;11.004;2022-09-09T16:09:16;2.38;;;0.52;;
6823;SDS011;58633;49.470;11.004;2022-09-09T16:11:43;0.50;;;0.50;;
6823;SDS011;58633;49.470;11.004;2022-09-09T16:14:09;0.55;;;0.50;;
6823;SDS011;58633;49.470;11.004;2022-09-09T16:16:36;0.50;;;0.35;;
6823;SDS011;58633;49.470;11.004;2022-09-09T16:19:03;0.93;;;0.57;;
6823;SDS011;58633;49.470;11.004;2022-09-09T16:21:35;2.55;;;0.60;;
6823;SDS011;58633;49.470;11.004;2022-09-09T16:24:03;1.48;;;0.50;;
6823;SDS011;58633;49.470;11.004;2022-09-09T16:26:30;1.80;;;0.82;;
6823;SDS011;58633;49.470;11.004;2022-09-09T16:29:00;1.75;;;0.70;;
6823;SDS011;58633;49.470;11.004;2022-09-09T16:31:27;1.00;;;0.52;;
6823;SDS011;58633;49.470;11.004;2022-09-09T16:33:54;0.55;;;0.52;;
6823;SDS011;58633;49.470;11.004;2022-09-09T16:36:21;5.63;;;1.98;;
6823;SDS011;58633;49.470;11.004;2022-09-09T16:38:52;0.93;;;0.60;;
6823;SDS011;58633;49.470;11.004;2022-09-09T16:41:19;1.33;;;0.80;;
6823;SDS011;58633;49.470;11.004;2022-09-09T16:43:46;0.50;;;0.50;;
6823;SDS011;58633;49.470;11.004;2022-09-09T16:48:43;0.95;;;0.68;;
6823;SDS011;58633;49.470;11.004;2022-09-09T16:51:14;0.88;;;0.50;;
6823;SDS011;58633;49.470;11.004;2022-09-09T16:53:41;1.38;;;0.60;;
6823;SDS011;58633;49.470;11.004;2022-09-09T16:56:13;1.15;;;0.70;;
6823;SDS011;58633;49.470;11.004;2022-09-09T16:58:41;0.70;;;0.63;;
6823;SDS011;58633;49.470;11.004;2022-09-09T17:01:10;0.88;;;0.60;;
6823;SDS011;58633;49.470;11.004;2022-09-09T17:03:39;0.68;;;0.50;;
6823;SDS011;58633;49.470;11.004;2022-09-09T17:06:09;1.25;;;0.57;;